Città:
 IT 
 EN 
 FR 
 DE 
 ES 

Dati meteo attuali Milano

Datameteo.com - Informazione e servizi avanzati per la meteorologia,la nautica e la protezione civile
Milano / Linate, Italy
Alba: 4:38 AM UTC1
Tramonto: 8:00 PM UTC1
 Lat: 45.42N, Lon: 9.27E
ICAO Used: LIML
Condizioni Meteo Attuali Aggiornate: 29.05.2022 alle 11:20 UTC
Coperto
Coperto
Coperto
Temp: 18°C
Umidita': 60%
Direz/Vel. Vento: NE 4 / KT raffiche
Pressione: 1007 hPa
Punto di rugiada: 10°C
Temperatura percepita: 18°C
Visibilitą: >10 KM (ottima)
Temperatura percepita in
presenza di vento (Wind Chill)
:
18°C
T. max (ultime 24 ore): 18°C
T. min (ultime 24 ore): 14°C


METAR ORIGINALE
LIML 291120Z 05004KT 340V130 9999 FEW030 BKN060 18/10 Q1007 NOSIG



[ Indietro ]


Elaborazione dati by Datameteo.com - Lrc srl Copyright ©, All rights reserved.
Visualizza la versione web
©2010 Datameteo.com
weather mobile,mobile weather,meteo mobile,mobile meteo,meteo sul telefonino datameteo.com